Time;durP1;ratioP1;P1;durP2;ratioP2;P2;SDS_P1;SDS_P2;PMS_P1;PMS_P2;Temp;Humidity;BMP_temperature;BMP_pressure;BME280_temperature;BME280_humidity;BME280_pressure;Samples;Min_cycle;Max_cycle;Signal;HPM_P1;HPM_P2
2021/03/18 00:02:04;;;;;;;35.45;17.90;;;;;;;1.68;76.46;98187.69;1734924;82;21211;-72
2021/03/18 00:04:30;;;;;;;38.75;19.77;;;;;;;1.66;76.55;98186.27;1734782;81;21529;-72
2021/03/18 00:06:56;;;;;;;43.42;19.80;;;;;;;1.59;76.89;98186.84;1734880;82;21140;-72
2021/03/18 00:09:22;;;;;;;33.45;16.75;;;;;;;1.57;77.01;98187.59;1703591;82;21105;-72
2021/03/18 00:11:51;;;;;;;36.20;17.75;;;;;;;1.57;77.06;98186.25;1734895;82;21538;-72
2021/03/18 00:14:22;;;;;;;34.67;18.27;;;;;;;1.54;77.15;98191.52;1734940;81;21198;-72
2021/03/18 00:16:48;;;;;;;37.33;16.45;;;;;;;1.56;76.88;98184.09;1734724;82;21501;-72
2021/03/18 00:19:14;;;;;;;31.62;16.93;;;;;;;1.57;77.28;98187.59;1734721;81;21204;-72
2021/03/18 00:21:41;;;;;;;36.23;18.23;;;;;;;1.55;77.62;98185.14;1734859;82;21155;-72
2021/03/18 00:24:08;;;;;;;34.53;17.37;;;;;;;1.54;77.55;98188.84;1734723;81;21034;-72
2021/03/18 00:26:34;;;;;;;34.23;19.00;;;;;;;1.49;77.81;98191.34;1734885;82;21192;-72
2021/03/18 00:29:01;;;;;;;32.67;17.23;;;;;;;1.45;78.14;98189.30;1734795;81;21172;-72
2021/03/18 00:31:29;;;;;;;37.05;16.55;;;;;;;1.48;78.17;98184.36;1734870;82;21502;-71
2021/03/18 00:33:56;;;;;;;33.42;16.10;;;;;;;1.51;77.46;98182.58;1734772;81;21089;-72
2021/03/18 00:36:22;;;;;;;33.23;16.87;;;;;;;1.48;77.72;98179.55;1734822;82;21117;-72
2021/03/18 00:38:49;;;;;;;34.45;19.00;;;;;;;1.48;78.12;98187.55;1734784;82;21197;-72
2021/03/18 00:41:15;;;;;;;36.53;16.80;;;;;;;1.49;77.99;98176.65;1734688;81;21152;-72
2021/03/18 00:43:42;;;;;;;35.78;17.27;;;;;;;1.52;77.64;98178.06;1734771;82;21125;-72
2021/03/18 00:46:08;;;;;;;29.98;16.60;;;;;;;1.58;77.28;98178.02;1734764;81;21041;-71
2021/03/18 00:48:35;;;;;;;28.38;16.20;;;;;;;1.60;77.37;98177.79;1734819;82;21117;-72
2021/03/18 00:51:06;;;;;;;31.90;16.02;;;;;;;1.56;77.81;98172.08;1734733;81;21210;-72
2021/03/18 00:53:41;;;;;;;27.95;15.10;;;;;;;1.58;77.59;98171.33;1734168;82;21129;-72
2021/03/18 00:56:12;;;;;;;33.98;16.12;;;;;;;1.58;77.57;98168.66;1734756;81;21427;-71
2021/03/18 00:58:40;;;;;;;40.33;18.65;;;;;;;1.65;77.30;98173.95;1734684;82;21121;-72
2021/03/18 01:01:06;;;;;;;32.30;17.25;;;;;;;1.66;77.71;98166.23;1734799;81;21062;-71
2021/03/18 01:03:34;;;;;;;31.48;16.40;;;;;;;1.63;77.10;98170.69;1734855;82;21546;-72
2021/03/18 01:06:11;;;;;;;33.45;15.85;;;;;;;1.48;77.58;98167.52;1734926;81;21145;-72
2021/03/18 01:08:37;;;;;;;28.95;15.23;;;;;;;1.47;77.27;98164.03;1731707;82;21078;-72
2021/03/18 01:11:07;;;;;;;32.83;16.35;;;;;;;1.48;77.51;98164.34;1734730;81;21105;-72
2021/03/18 01:13:34;;;;;;;29.30;15.10;;;;;;;1.51;77.55;98164.41;1734882;82;21522;-72
2021/03/18 01:16:05;;;;;;;27.58;13.85;;;;;;;1.46;77.64;98161.07;1734724;81;21204;-72
2021/03/18 01:18:45;;;;;;;30.05;15.58;;;;;;;1.51;77.12;98158.55;1784668;80;21109;-72
2021/03/18 01:21:12;;;;;;;30.20;14.18;;;;;;;1.53;77.93;98155.13;1785162;79;21099;-71
2021/03/18 01:23:39;;;;;;;28.10;15.25;;;;;;;1.48;78.20;98153.66;1785217;80;21130;-71
2021/03/18 01:26:05;;;;;;;31.17;15.93;;;;;;;1.52;77.98;98156.69;1785106;79;21031;-71
2021/03/18 01:28:31;;;;;;;33.78;16.70;;;;;;;1.54;77.58;98152.79;1785272;80;21190;-71
2021/03/18 01:30:58;;;;;;;36.13;19.35;;;;;;;1.55;78.09;98157.09;1785043;79;21047;-71
2021/03/18 01:33:24;;;;;;;79.70;32.03;;;;;;;1.54;78.69;98153.28;1785167;80;21134;-71
2021/03/18 01:35:50;;;;;;;35.38;19.12;;;;;;;1.54;78.18;98151.94;1785126;79;21114;-71
2021/03/18 01:38:16;;;;;;;59.70;22.95;;;;;;;1.50;78.99;98154.77;1785171;80;21117;-71
2021/03/18 01:40:43;;;;;;;45.05;20.12;;;;;;;1.41;79.85;98154.22;1785085;79;21138;-71
2021/03/18 01:43:09;;;;;;;39.03;18.87;;;;;;;1.36;80.21;98155.38;1785077;80;21113;-71
2021/03/18 01:45:35;;;;;;;37.08;17.48;;;;;;;1.32;79.30;98152.85;1785080;79;21091;-71
2021/03/18 01:48:04;;;;;;;30.20;15.28;;;;;;;1.33;79.38;98159.30;1785231;80;21145;-71
2021/03/18 01:50:32;;;;;;;31.82;15.13;;;;;;;1.31;78.98;98153.38;1785318;79;21507;-72
2021/03/18 01:52:58;;;;;;;36.60;19.77;;;;;;;1.31;79.27;98148.03;1785356;80;21288;-72
2021/03/18 01:55:32;;;;;;;36.10;17.40;;;;;;;1.30;79.99;98149.07;1784974;79;21042;-72
2021/03/18 01:57:59;;;;;;;45.60;21.23;;;;;;;1.28;80.06;98151.15;1785168;80;21098;-72
2021/03/18 02:00:26;;;;;;;31.55;15.65;;;;;;;1.29;79.62;98155.45;1781546;79;21038;-72
2021/03/18 02:02:52;;;;;;;27.95;16.32;;;;;;;1.19;79.74;98162.28;1780818;80;21087;-72
2021/03/18 02:05:19;;;;;;;30.30;15.90;;;;;;;1.15;79.87;98159.75;1780641;79;21182;-72
2021/03/18 02:07:45;;;;;;;33.23;17.55;;;;;;;1.13;80.09;98160.80;1780665;80;21078;-72
2021/03/18 02:10:11;;;;;;;33.42;17.20;;;;;;;1.09;80.39;98162.23;1780738;79;21488;-72
2021/03/18 02:12:38;;;;;;;28.60;15.35;;;;;;;0.99;80.67;98165.09;1780779;80;21126;-72
2021/03/18 02:15:07;;;;;;;31.82;16.87;;;;;;;1.05;80.35;98165.05;1762143;81;21112;-72
2021/03/18 02:17:37;;;;;;;;;;;;;;;1.05;80.59;98167.72;1783437;80;21924;-72
2021/03/18 02:20:23;;;;;;;31.77;16.60;;;;;;;1.03;80.92;98166.31;1780403;79;20230;-72
2021/03/18 02:23:20;;;;;;;31.25;16.48;;;;;;;1.01;80.59;98165.16;1780991;80;21436;-71
2021/03/18 02:26:04;;;;;;;31.20;17.00;;;;;;;1.05;80.65;98165.05;1780824;79;21032;-71
2021/03/18 02:29:08;;;;;;;29.82;16.02;;;;;;;1.06;81.02;98164.02;1769871;80;21115;-73
2021/03/18 02:32:03;;;;;;;34.05;16.73;;;;;;;1.08;80.80;98167.80;1780982;80;21192;-71
2021/03/18 02:34:47;;;;;;;30.00;16.07;;;;;;;1.10;80.67;98165.20;1779540;79;21499;-72
2021/03/18 02:37:13;;;;;;;34.92;16.60;;;;;;;1.04;81.22;98169.27;1762131;81;21132;-71
2021/03/18 02:39:44;;;;;;;27.90;16.27;;;;;;;0.99;81.55;98166.42;1762247;81;21409;-71
2021/03/18 02:42:14;;;;;;;32.58;17.17;;;;;;;1.04;80.94;98165.27;1780973;80;21095;-72
2021/03/18 02:44:40;;;;;;;32.30;16.12;;;;;;;1.06;81.23;98168.53;1762352;80;22045;-72
2021/03/18 02:47:09;;;;;;;30.92;15.28;;;;;;;0.96;81.57;98171.67;1780876;80;21126;-71
2021/03/18 02:49:43;;;;;;;28.63;16.90;;;;;;;0.95;81.94;98164.71;1762562;81;21429;-72
2021/03/18 02:52:12;;;;;;;32.55;17.35;;;;;;;0.96;81.60;98170.86;1780930;80;21492;-72
2021/03/18 02:54:38;;;;;;;33.10;18.32;;;;;;;0.96;81.56;98174.87;1779935;79;21432;-72
2021/03/18 02:57:06;;;;;;;32.58;16.55;;;;;;;1.00;81.25;98174.20;1762339;81;21211;-72
2021/03/18 02:59:36;;;;;;;29.50;16.55;;;;;;;0.95;81.99;98171.90;1761614;81;21643;-72
2021/03/18 03:02:03;;;;;;;;;;;;;;;1.00;81.64;98175.54;1762531;81;21198;-72
2021/03/18 03:04:29;;;;;;;33.48;17.20;;;;;;;1.06;81.66;98173.36;1732982;81;20237;-72
2021/03/18 03:06:55;;;;;;;35.00;13.80;;;;;;;1.05;81.68;98176.25;1778163;80;21146;-72
2021/03/18 03:09:21;;;;;;;31.27;14.58;;;;;;;0.98;82.00;98172.27;1778032;79;21190;-72
2021/03/18 03:11:48;;;;;;;27.40;16.37;;;;;;;0.94;82.45;98174.23;1777979;80;21150;-72
2021/03/18 03:14:14;;;;;;;26.12;14.65;;;;;;;0.93;82.49;98172.09;1778066;79;21607;-72
2021/03/18 03:16:40;;;;;;;25.57;14.45;;;;;;;0.93;82.14;98173.94;1778003;80;21162;-72
2021/03/18 03:19:07;;;;;;;27.45;14.30;;;;;;;0.92;82.18;98178.45;1778144;79;21575;-72
2021/03/18 03:21:33;;;;;;;27.40;15.65;;;;;;;0.84;83.04;98178.19;1778032;80;21253;-72
2021/03/18 03:24:00;;;;;;;29.07;14.28;;;;;;;0.81;83.42;98182.62;1777956;79;21158;-72
2021/03/18 03:26:26;;;;;;;24.95;14.78;;;;;;;0.84;83.28;98185.38;1778064;80;21024;-72
2021/03/18 03:28:53;;;;;;;27.93;14.23;;;;;;;0.79;83.98;98183.88;1778034;79;21118;-72
2021/03/18 03:31:19;;;;;;;25.23;14.30;;;;;;;0.75;84.31;98188.81;1778053;80;21031;-72
2021/03/18 03:33:45;;;;;;;28.17;14.00;;;;;;;0.80;83.45;98182.33;1778076;80;21191;-72
2021/03/18 03:36:12;;;;;;;27.55;13.22;;;;;;;0.83;83.21;98186.41;1778000;79;21103;-72
2021/03/18 03:38:38;;;;;;;24.57;14.00;;;;;;;0.86;83.28;98187.34;1778055;80;21095;-72
2021/03/18 03:41:06;;;;;;;23.65;12.80;;;;;;;0.88;83.26;98177.78;1777978;79;21135;-72
2021/03/18 03:43:32;;;;;;;26.97;16.12;;;;;;;0.89;83.25;98182.08;1778078;80;21080;-72
2021/03/18 03:45:58;;;;;;;22.37;12.25;;;;;;;0.81;83.58;98188.48;1777998;79;21186;-72
2021/03/18 03:48:24;;;;;;;23.20;13.70;;;;;;;0.86;82.80;98179.34;1778061;80;21107;-72
2021/03/18 03:50:51;;;;;;;26.30;13.18;;;;;;;0.83;83.71;98181.89;1753705;80;21105;-72
2021/03/18 03:53:44;;;;;;;28.65;13.62;;;;;;;0.65;84.91;98188.97;1778020;80;21083;-72
2021/03/18 03:56:24;;;;;;;25.65;14.68;;;;;;;0.66;84.74;98187.41;1778010;79;21113;-71
2021/03/18 03:59:05;;;;;;;25.15;12.43;;;;;;;0.63;85.15;98189.70;1777443;80;21981;-71
2021/03/18 04:01:46;;;;;;;22.17;12.10;;;;;;;0.65;84.72;98191.63;1777913;80;21114;-71
2021/03/18 04:04:28;;;;;;;23.90;12.63;;;;;;;0.58;85.47;98194.84;1755392;79;21321;-71
2021/03/18 04:07:06;;;;;;;22.85;13.80;;;;;;;0.59;85.59;98192.47;1756377;80;21162;-71
2021/03/18 04:09:33;;;;;;;21.07;12.30;;;;;;;0.52;86.03;98193.34;1754224;80;21559;-72
2021/03/18 04:12:00;;;;;;;21.10;12.95;;;;;;;0.64;84.45;98199.33;1778091;80;21251;-72
2021/03/18 04:14:29;;;;;;;20.72;12.05;;;;;;;0.60;85.33;98190.10;1777910;79;21448;-72
2021/03/18 04:16:57;;;;;;;;;;;;;;;0.49;85.69;98198.25;1780598;80;21436;-72
2021/03/18 04:19:23;;;;;;;22.17;12.05;;;;;;;0.47;85.71;98198.47;1778164;79;20215;-72
2021/03/18 04:21:51;;;;;;;26.45;15.75;;;;;;;0.45;85.85;98202.39;1753889;80;21015;-72
2021/03/18 04:24:18;;;;;;;23.22;14.18;;;;;;;0.46;85.83;98200.02;1778000;79;22101;-72
2021/03/18 04:26:44;;;;;;;26.68;14.58;;;;;;;0.46;85.50;98196.84;1777895;80;21086;-72
2021/03/18 04:29:10;;;;;;;26.97;14.68;;;;;;;0.51;85.27;98201.52;1778026;79;21162;-72
2021/03/18 04:31:38;;;;;;;19.57;12.75;;;;;;;0.57;84.78;98203.35;1777989;80;21034;-72
2021/03/18 04:34:04;;;;;;;26.10;13.93;;;;;;;0.62;84.83;98208.07;1778114;79;21098;-72
2021/03/18 04:36:31;;;;;;;19.23;12.58;;;;;;;0.57;84.48;98203.35;1777927;80;21274;-72
2021/03/18 04:38:58;;;;;;;22.00;11.75;;;;;;;0.66;84.10;98200.75;1777894;79;21134;-72
2021/03/18 04:41:25;;;;;;;26.40;13.93;;;;;;;0.70;84.00;98203.31;1777983;80;21110;-72
2021/03/18 04:43:52;;;;;;;20.43;12.07;;;;;;;0.57;85.08;98200.69;1778005;80;21090;-72
2021/03/18 04:46:18;;;;;;;22.40;12.88;;;;;;;0.49;85.02;98204.92;1777964;80;21036;-72
2021/03/18 04:48:44;;;;;;;18.85;12.45;;;;;;;0.42;85.23;98204.94;1777982;80;21196;-72
2021/03/18 04:51:10;;;;;;;22.93;12.07;;;;;;;0.41;85.46;98208.63;1777969;79;21114;-72
2021/03/18 04:53:37;;;;;;;18.48;11.20;;;;;;;0.49;84.80;98205.73;1778065;80;21563;-72
2021/03/18 04:56:06;;;;;;;21.68;13.13;;;;;;;0.48;84.87;98209.44;1753741;80;21106;-72
2021/03/18 04:58:33;;;;;;;22.30;13.48;;;;;;;0.49;85.03;98211.59;1777473;80;21103;-72
2021/03/18 05:01:00;;;;;;;21.23;12.60;;;;;;;0.47;85.15;98205.14;1782591;79;21064;-72
2021/03/18 05:03:26;;;;;;;20.80;12.95;;;;;;;0.55;84.17;98210.23;1785172;80;21093;-72
2021/03/18 05:05:55;;;;;;;32.53;20.23;;;;;;;0.53;84.53;98208.30;1785198;79;21487;-72
2021/03/18 05:08:21;;;;;;;30.02;18.90;;;;;;;0.44;85.19;98213.56;1757267;80;21507;-72
2021/03/18 05:10:47;;;;;;;32.48;21.87;;;;;;;0.59;84.17;98215.14;1756633;80;21025;-72
2021/03/18 05:13:13;;;;;;;24.20;14.68;;;;;;;0.67;83.95;98210.38;1785156;80;21186;-72
2021/03/18 05:15:40;;;;;;;26.33;14.78;;;;;;;0.56;84.68;98212.39;1785094;79;21015;-72
2021/03/18 05:18:12;;;;;;;24.15;13.40;;;;;;;0.40;85.38;98209.67;1785131;80;21087;-72
2021/03/18 05:20:40;;;;;;;25.30;14.73;;;;;;;0.44;85.05;98215.41;1785085;79;21086;-71
2021/03/18 05:23:08;;;;;;;27.30;13.10;;;;;;;0.42;85.34;98217.45;1785155;80;21472;-71
2021/03/18 05:25:34;;;;;;;26.75;13.93;;;;;;;0.40;85.37;98222.18;1756515;80;21265;-71
2021/03/18 05:28:01;;;;;;;22.52;14.47;;;;;;;0.36;85.50;98222.31;1785194;80;21165;-71
2021/03/18 05:30:27;;;;;;;23.83;14.63;;;;;;;0.34;85.71;98225.67;1785147;79;21409;-71
2021/03/18 05:33:03;;;;;;;26.57;14.87;;;;;;;0.34;85.77;98225.16;1785213;80;21146;-71
2021/03/18 05:35:30;;;;;;;28.20;15.03;;;;;;;0.42;85.26;98229.45;1785154;79;21004;-72
2021/03/18 05:37:56;;;;;;;32.20;15.85;;;;;;;0.46;84.83;98231.50;1785212;80;22133;-72
2021/03/18 05:40:22;;;;;;;27.87;16.50;;;;;;;0.51;84.50;98227.70;1785023;79;21340;-72
2021/03/18 05:42:49;;;;;;;27.70;16.23;;;;;;;0.46;85.20;98229.34;1785119;80;21207;-72
2021/03/18 05:45:16;;;;;;;28.10;15.78;;;;;;;0.51;84.88;98227.70;1785140;79;21083;-72
2021/03/18 05:47:42;;;;;;;29.05;16.57;;;;;;;0.58;84.44;98230.32;1756683;80;21110;-72
2021/03/18 05:50:13;;;;;;;24.15;16.50;;;;;;;0.57;84.37;98228.69;1785154;79;22035;-72
2021/03/18 05:52:39;;;;;;;29.12;15.43;;;;;;;0.58;84.63;98228.98;1784418;80;21503;-72
2021/03/18 05:55:07;;;;;;;29.63;14.20;;;;;;;0.51;84.63;98230.85;1785059;79;21435;-72
2021/03/18 05:57:35;;;;;;;32.97;14.07;;;;;;;0.59;84.28;98236.47;1756767;80;21091;-72
2021/03/18 06:00:04;;;;;;;26.80;14.68;;;;;;;0.60;84.25;98235.44;1784460;79;21472;-72
2021/03/18 06:02:32;;;;;;;;;;;;;;;0.61;84.52;98239.77;1783305;80;21191;-72
2021/03/18 06:04:59;;;;;;;30.50;17.05;;;;;;;0.63;84.21;98239.86;1780820;79;20413;-72
2021/03/18 06:07:25;;;;;;;29.15;16.07;;;;;;;0.64;84.15;98243.34;1731655;80;21032;-72
2021/03/18 06:09:54;;;;;;;30.62;16.35;;;;;;;0.64;83.28;98243.34;1780675;79;21094;-72
2021/03/18 06:12:20;;;;;;;30.00;17.00;;;;;;;0.58;83.65;98243.66;1712995;81;21116;-72
2021/03/18 06:14:46;;;;;;;28.62;16.32;;;;;;;0.56;84.09;98247.87;1780618;79;21159;-72
2021/03/18 06:17:13;;;;;;;30.12;16.85;;;;;;;0.57;84.40;98251.36;1761981;81;21497;-72
2021/03/18 06:19:39;;;;;;;30.80;16.97;;;;;;;0.62;84.23;98246.74;1762170;81;21053;-72
2021/03/18 06:22:05;;;;;;;27.07;15.18;;;;;;;0.65;83.78;98250.31;1780663;80;21044;-72
2021/03/18 06:24:33;;;;;;;29.37;15.43;;;;;;;0.62;83.85;98255.56;1762203;80;21477;-72
2021/03/18 06:26:59;;;;;;;30.97;17.75;;;;;;;0.69;83.70;98257.70;1762158;81;21247;-72
2021/03/18 06:29:39;;;;;;;30.90;18.05;;;;;;;0.63;83.64;98260.38;1780581;79;21036;-72
2021/03/18 06:32:17;;;;;;;34.00;19.57;;;;;;;0.60;84.08;98262.95;1762143;81;21041;-71
2021/03/18 06:34:55;;;;;;;34.80;20.88;;;;;;;0.69;83.35;98252.88;1762293;81;21492;-71
2021/03/18 06:37:29;;;;;;;32.58;19.90;;;;;;;0.78;83.27;98259.61;1780752;80;21126;-71
2021/03/18 06:40:04;;;;;;;35.60;21.10;;;;;;;0.78;83.39;98260.95;1762096;80;21945;-71
2021/03/18 06:42:31;;;;;;;30.85;17.95;;;;;;;0.74;83.54;98260.53;1782162;80;21523;-72
2021/03/18 06:45:13;;;;;;;28.25;14.30;;;;;;;0.77;83.24;98255.28;1762075;80;21036;-72
2021/03/18 06:47:54;;;;;;;27.22;15.88;;;;;;;0.63;83.51;98259.05;1780709;80;21044;-71
2021/03/18 06:50:22;;;;;;;32.53;17.90;;;;;;;0.56;83.08;98259.88;1762207;81;21144;-72
2021/03/18 06:52:48;;;;;;;30.10;17.85;;;;;;;0.68;83.04;98265.88;1780746;80;21535;-72
2021/03/18 06:55:28;;;;;;;26.68;17.12;;;;;;;0.68;83.22;98263.22;1761988;81;21092;-72
2021/03/18 06:58:20;;;;;;;27.55;17.10;;;;;;;0.81;82.50;98272.00;1749813;81;21495;-73
2021/03/18 07:00:50;;;;;;;28.30;17.12;;;;;;;0.87;82.47;98269.53;1758650;80;21051;-71
2021/03/18 07:03:29;;;;;;;23.22;14.33;;;;;;;0.76;82.19;98266.47;1788745;80;21070;-72
2021/03/18 07:05:57;;;;;;;27.65;15.25;;;;;;;0.83;81.92;98275.27;1788729;78;21251;-72
2021/03/18 07:08:40;;;;;;;32.85;21.77;;;;;;;0.94;81.81;98272.48;1788714;80;21089;-72
2021/03/18 07:11:21;;;;;;;24.67;13.93;;;;;;;1.11;81.61;98271.45;1788827;78;21066;-71
2021/03/18 07:13:49;;;;;;;22.75;13.40;;;;;;;1.05;80.13;98270.47;1788900;80;21094;-72
2021/03/18 07:16:15;;;;;;;29.55;16.25;;;;;;;1.05;80.32;98277.66;1788776;78;21099;-72
2021/03/18 07:18:41;;;;;;;19.42;11.40;;;;;;;0.97;80.85;98275.23;1788838;80;21157;-72
2021/03/18 07:21:12;;;;;;;27.75;13.50;;;;;;;0.91;80.19;98278.73;1788735;78;21028;-72
2021/03/18 07:23:43;;;;;;;25.80;12.45;;;;;;;1.05;79.80;98275.81;1788646;80;21078;-72
2021/03/18 07:26:23;;;;;;;23.55;14.73;;;;;;;1.04;79.10;98277.36;1788777;78;21047;-72
2021/03/18 07:28:52;;;;;;;26.17;15.23;;;;;;;1.05;78.96;98279.00;1788943;80;21090;-71
2021/03/18 07:31:20;;;;;;;23.45;14.15;;;;;;;1.30;78.74;98284.42;1788928;80;21250;-72
2021/03/18 07:33:48;;;;;;;20.62;13.45;;;;;;;1.15;77.05;98282.55;1788817;80;21086;-72
2021/03/18 07:36:15;;;;;;;22.15;12.93;;;;;;;1.10;77.50;98279.98;1788742;78;21110;-72
2021/03/18 07:38:42;;;;;;;26.23;17.15;;;;;;;1.36;77.82;98272.34;1788949;80;21486;-72
2021/03/18 07:41:16;;;;;;;21.05;13.50;;;;;;;1.63;77.32;98277.55;1764446;80;21428;-72
2021/03/18 07:43:45;;;;;;;19.45;11.75;;;;;;;1.68;75.89;98274.51;1788905;80;21241;-72
2021/03/18 07:46:17;;;;;;;23.97;12.70;;;;;;;1.56;74.46;98272.77;1788940;78;21034;-72
2021/03/18 07:48:48;;;;;;;25.15;15.65;;;;;;;1.89;75.79;98280.02;1788916;80;21094;-71
2021/03/18 07:51:15;;;;;;;25.32;18.07;;;;;;;2.04;75.54;98279.67;1788787;78;21039;-72
2021/03/18 07:53:51;;;;;;;20.20;13.15;;;;;;;2.23;75.39;98273.36;1788831;80;21090;-72
2021/03/18 07:56:17;;;;;;;23.73;14.18;;;;;;;2.22;74.01;98271.73;1788739;78;21194;-72
2021/03/18 07:58:46;;;;;;;23.02;14.18;;;;;;;2.04;74.39;98281.02;1788741;80;21111;-72
2021/03/18 08:01:33;;;;;;;;;;;;;;;2.06;75.07;98276.81;1786379;78;21030;-72
2021/03/18 08:04:09;;;;;;;22.25;13.22;;;;;;;1.83;74.77;98278.21;1778011;79;20215;-72
2021/03/18 08:06:46;;;;;;;18.65;12.35;;;;;;;1.79;75.23;98279.66;1777456;80;21047;-71
2021/03/18 08:09:29;;;;;;;19.57;12.00;;;;;;;1.92;75.37;98276.91;1778007;79;21260;-72
2021/03/18 08:11:55;;;;;;;26.62;15.63;;;;;;;2.15;74.96;98272.82;1757034;80;21082;-72
2021/03/18 08:14:23;;;;;;;25.90;17.10;;;;;;;2.07;73.97;98272.58;1778093;79;21051;-72
2021/03/18 08:16:49;;;;;;;20.17;14.25;;;;;;;2.01;72.22;98277.97;1777989;80;21059;-72
2021/03/18 08:19:20;;;;;;;23.05;14.20;;;;;;;2.13;73.28;98273.53;1777991;79;21178;-70
2021/03/18 08:21:52;;;;;;;23.12;15.38;;;;;;;2.22;73.39;98274.89;1778023;80;21133;-72
2021/03/18 08:24:24;;;;;;;19.10;12.88;;;;;;;2.44;73.72;98277.98;1777711;79;21035;-71
2021/03/18 08:26:54;;;;;;;23.42;13.93;;;;;;;2.37;72.92;98271.88;1777959;80;21107;-71
2021/03/18 08:29:38;;;;;;;20.55;13.80;;;;;;;2.43;71.64;98274.50;1777824;79;21047;-72
2021/03/18 08:32:06;;;;;;;18.65;12.82;;;;;;;2.53;71.66;98272.13;1777997;80;21086;-71
2021/03/18 08:34:57;;;;;;;20.37;12.37;;;;;;;2.72;70.18;98270.79;1778060;79;22037;-71
2021/03/18 08:37:41;;;;;;;16.65;11.15;;;;;;;2.95;70.88;98274.14;1777960;80;21500;-71
2021/03/18 08:40:21;;;;;;;12.68;9.18;;;;;;;2.99;71.00;98265.94;1777984;79;21044;-71
2021/03/18 08:42:50;;;;;;;81.28;57.08;;;;;;;2.81;67.46;98262.23;1778000;80;21028;-72
2021/03/18 08:45:26;;;;;;;36.77;26.05;;;;;;;2.74;70.24;98272.23;1778097;79;21095;-71
2021/03/18 08:47:56;;;;;;;26.25;19.23;;;;;;;2.72;70.04;98265.44;1778051;80;21190;-72
2021/03/18 08:50:31;;;;;;;22.22;15.65;;;;;;;2.52;70.02;98276.37;1777868;79;21082;-72
2021/03/18 08:52:58;;;;;;;33.85;19.90;;;;;;;2.42;70.60;98276.06;1778040;80;21043;-71
2021/03/18 08:55:43;;;;;;;19.73;13.05;;;;;;;2.35;70.74;98277.45;1777949;79;21125;-71
2021/03/18 08:58:09;;;;;;;23.30;12.82;;;;;;;2.34;70.32;98281.17;1777954;80;21091;-71
2021/03/18 09:00:36;;;;;;;11.90;8.55;;;;;;;2.85;68.03;98287.23;1777934;79;21257;-71
2021/03/18 09:03:03;;;;;;;13.10;8.15;;;;;;;4.52;60.25;98282.16;1784986;80;21495;-72
2021/03/18 09:05:29;;;;;;;11.65;7.83;;;;;;;5.82;56.08;98274.55;1785140;79;21030;-72
2021/03/18 09:08:01;;;;;;;13.28;7.25;;;;;;;7.22;57.19;98273.92;1785119;80;21054;-72
2021/03/18 09:10:33;;;;;;;10.20;6.35;;;;;;;7.47;52.55;98270.70;1785168;79;21044;-71
2021/03/18 09:13:05;;;;;;;9.15;4.92;;;;;;;6.36;54.67;98271.69;1783879;80;21204;-71
2021/03/18 09:15:33;;;;;;;10.68;6.67;;;;;;;5.59;55.94;98263.38;1783181;79;21515;-71
2021/03/18 09:18:24;;;;;;;8.38;6.30;;;;;;;5.55;58.34;98264.91;1785092;80;21122;-71
2021/03/18 09:20:58;;;;;;;10.08;5.12;;;;;;;4.91;56.93;98264.21;1785114;79;21126;-71
2021/03/18 09:23:29;;;;;;;8.38;5.97;;;;;;;4.94;58.37;98254.33;1785135;80;21015;-71
2021/03/18 09:26:09;;;;;;;10.95;5.75;;;;;;;4.74;55.87;98255.55;1816829;76;22700;-71
2021/03/18 09:28:36;;;;;;;;;;;;;;;4.26;58.45;98259.83;1788586;80;20968;-71
2021/03/18 09:31:02;;;;;;;9.30;4.22;;;;;;;4.32;58.14;98257.56;1785998;79;21268;-71
2021/03/18 09:33:37;;;;;;;4.90;3.30;;;;;;;3.75;55.73;98256.45;1785937;80;21554;-71
2021/03/18 09:36:19;;;;;;;10.38;4.53;;;;;;;3.67;57.25;98261.11;1785821;79;21030;-71
2021/03/18 09:39:10;;;;;;;8.80;3.77;;;;;;;3.25;57.63;98261.61;1784820;80;20928;-71
2021/03/18 09:41:39;;;;;;;5.62;3.67;;;;;;;2.98;59.38;98265.13;1784976;80;21138;-71
2021/03/18 09:44:12;;;;;;;;;;;;;;;3.00;58.99;98256.89;1788534;79;21397;-71
2021/03/18 09:46:40;;;;;;;6.97;4.00;;;;;;;2.92;59.14;98260.69;1784636;80;20147;-71
2021/03/18 09:49:06;;;;;;;5.85;3.62;;;;;;;3.25;59.25;98254.09;1785955;79;20913;-71
2021/03/18 09:51:39;;;;;;;5.60;3.85;;;;;;;3.15;56.69;98251.12;1785925;80;21573;-71
2021/03/18 09:54:07;;;;;;;8.15;2.98;;;;;;;3.35;57.08;98245.80;1785925;79;21577;-71
2021/03/18 09:56:38;;;;;;;5.83;2.98;;;;;;;3.25;55.67;98244.20;1785843;80;21191;-71
2021/03/18 09:59:06;;;;;;;4.95;2.83;;;;;;;3.43;54.46;98247.35;1785810;79;21300;-70
2021/03/18 10:01:32;;;;;;;8.58;3.17;;;;;;;3.46;55.66;98241.52;1785832;79;21091;-70
2021/03/18 10:04:05;;;;;;;26.07;10.90;;;;;;;3.73;57.48;98237.91;1785764;79;21122;-70
2021/03/18 10:06:36;;;;;;;11.80;6.03;;;;;;;3.85;56.80;98231.25;1785193;80;21083;-71
2021/03/18 10:09:33;;;;;;;5.08;3.12;;;;;;;3.77;57.91;98232.41;1785835;79;21193;-72
2021/03/18 10:12:05;;;;;;;7.35;2.33;;;;;;;3.47;52.32;98231.09;1755135;80;21098;-71
2021/03/18 10:14:36;;;;;;;7.92;3.17;;;;;;;3.49;53.28;98232.20;1785810;79;21070;-72
2021/03/18 10:17:07;;;;;;;6.10;2.83;;;;;;;3.57;53.08;98222.50;1756323;80;21094;-72
2021/03/18 10:19:34;;;;;;;3.02;2.02;;;;;;;3.57;52.60;98228.67;1784952;79;21122;-72
2021/03/18 10:22:08;;;;;;;43.35;17.62;;;;;;;3.63;50.80;98219.73;1785933;79;21193;-72
2021/03/18 10:24:35;;;;;;;26.77;10.98;;;;;;;3.76;51.96;98225.91;1785598;79;21401;-71
2021/03/18 10:27:12;;;;;;;5.75;2.77;;;;;;;3.81;52.59;98218.00;1785978;80;21463;-71
2021/03/18 10:29:38;;;;;;;6.92;4.22;;;;;;;3.64;50.98;98230.73;1785857;79;21118;-72
2021/03/18 10:32:13;;;;;;;5.20;2.70;;;;;;;3.23;53.49;98265.02;1755451;80;21158;-71
2021/03/18 10:34:40;;;;;;;10.90;3.95;;;;;;;2.67;60.41;98256.76;1785851;79;21388;-71
2021/03/18 10:37:32;;;;;;;5.60;3.65;;;;;;;2.08;66.20;98272.05;1785293;79;21110;-71
2021/03/18 10:40:25;;;;;;;15.18;6.97;;;;;;;1.66;69.50;98271.77;1785290;79;21119;-71
2021/03/18 10:42:57;;;;;;;16.20;8.13;;;;;;;0.89;74.00;98274.95;1785348;80;21091;-71
2021/03/18 10:45:31;;;;;;;13.93;6.75;;;;;;;0.58;79.35;98283.66;1785210;79;21106;-72
2021/03/18 10:48:02;;;;;;;25.17;11.35;;;;;;;0.32;81.19;98267.20;1785271;80;21189;-72
2021/03/18 10:50:33;;;;;;;39.67;17.85;;;;;;;0.38;79.55;98271.72;1785224;79;21503;-72
2021/03/18 10:53:03;;;;;;;10.60;4.30;;;;;;;0.38;79.43;98262.38;1785336;80;21480;-71
2021/03/18 10:55:39;;;;;;;108.20;45.83;;;;;;;0.62;76.65;98262.23;1785165;79;21091;-72
2021/03/18 10:58:10;;;;;;;106.45;50.45;;;;;;;0.66;77.88;98251.42;1784249;80;21087;-72
2021/03/18 11:00:39;;;;;;;11.45;6.08;;;;;;;0.81;77.93;98249.33;1754676;80;21511;-73
2021/03/18 11:03:14;;;;;;;21.15;11.57;;;;;;;0.66;80.52;98256.76;1785340;79;21095;-73
2021/03/18 11:05:49;;;;;;;25.23;15.18;;;;;;;0.86;79.16;98254.56;1785169;79;21126;-72
2021/03/18 11:08:26;;;;;;;22.45;13.62;;;;;;;0.94;76.71;98256.47;1785254;80;21106;-73
2021/03/18 11:10:53;;;;;;;8.03;4.53;;;;;;;1.09;76.91;98255.66;1785195;79;21115;-71
2021/03/18 11:13:30;;;;;;;9.80;5.65;;;;;;;1.35;75.69;98253.35;1785268;80;21919;-72
2021/03/18 11:16:04;;;;;;;8.23;5.53;;;;;;;1.52;74.64;98252.33;1785184;79;21577;-71
2021/03/18 11:18:44;;;;;;;290.98;127.40;;;;;;;1.70;74.04;98249.72;1785302;79;21074;-72
2021/03/18 11:21:33;;;;;;;107.15;56.35;;;;;;;1.87;74.94;98254.53;1785205;79;21062;-72
2021/03/18 11:24:13;;;;;;;23.12;13.78;;;;;;;2.17;73.87;98244.81;1785354;79;21520;-72
2021/03/18 11:26:46;;;;;;;7.95;4.28;;;;;;;2.34;73.59;98238.91;1785153;79;21248;-71
2021/03/18 11:29:16;;;;;;;5.08;3.77;;;;;;;2.43;72.47;98225.02;1783942;79;21443;-72
2021/03/18 11:31:52;;;;;;;9.13;4.72;;;;;;;2.51;72.07;98216.70;1785241;80;21095;-72
2021/03/18 11:34:28;;;;;;;9.20;5.00;;;;;;;2.68;70.88;98219.59;1785161;79;21061;-71
2021/03/18 11:37:06;;;;;;;24.07;10.08;;;;;;;2.80;70.09;98217.78;1784835;79;21509;-72
2021/03/18 11:39:32;;;;;;;177.27;77.08;;;;;;;2.91;70.48;98210.87;1785270;79;21255;-71
2021/03/18 11:41:58;;;;;;;9.33;6.15;;;;;;;2.86;69.49;98209.38;1785123;80;21134;-71
2021/03/18 11:44:30;;;;;;;12.53;5.53;;;;;;;2.80;69.82;98208.41;1785109;79;21120;-71
2021/03/18 11:47:04;;;;;;;5.00;3.40;;;;;;;2.90;70.03;98195.83;1785314;80;21011;-72